Huvudsida
METAR-TAF:

METAR-TAF

Flygplatser :

Montichiari

Brescia, Italien

latitud: 45-24-02N, longitud: 010-18-59E, höjd: 104 m

Aktuellt väderrapport

Denna rapport gjordes för 7 timmar och 31 minuter sedan, klockan 13:50 UTC
Vind 5 kt från väst
Temperatur 31°C
Fuktighet 33%
Tryck 1013 hPa
Sikt 10 km eller mer
Inga moln under 1 500 m eller inga cumulonimbus

METAR: LIPO 181350Z 27005KT CAVOK 31/13 Q1013

Tid: 23:21 (21:21 UTC)

Väderprognos

Denna rapport gjordes för 4 timmar och 21 minuter sedan, klockan 17:00 UTC
Prognos gäller från 18 kl. 18 UTC till 19 kl. 18 UTC
Vind 5 kt varierande vindriktning
Sikt 10 km eller mer
Spridda moln på en höjd av 6000 ft

TAF: LIPO 181700Z 1818/1918 VRB05KT 9999 SCT060

Aktuella väderrapporter och prognoser från 4000 flygplatser (METAR- och TAF-rapporter).

De tillgängliga stationerna syns som gula och röda prickar på kartan.

För musen över prickarna för att se namnen på stationerna.

Klicka sedan för att få väderrapporter och prognoser.

För att ändra kartan: Klicka på de gröna knapparna med ett svart kors på för att zooma in; den gröna knappen med ett streck på för att zooma ut; eller på de gröna pilarna för angränsande kartor.


METAR-TAF: